sensor_id;sensor_type;location;lat;lon;timestamp;P1;durP1;ratioP1;P2;durP2;ratioP2
20348;SDS011;10332;50.208;18.988;2023-09-12T00:03:29;14.60;;;12.95;;
20348;SDS011;10332;50.208;18.988;2023-09-12T00:06:55;12.23;;;10.93;;
20348;SDS011;10332;50.208;18.988;2023-09-12T00:10:21;12.60;;;10.60;;
20348;SDS011;10332;50.208;18.988;2023-09-12T00:13:47;13.65;;;12.00;;
20348;SDS011;10332;50.208;18.988;2023-09-12T00:17:13;12.82;;;11.48;;
20348;SDS011;10332;50.208;18.988;2023-09-12T00:20:39;12.68;;;10.77;;
20348;SDS011;10332;50.208;18.988;2023-09-12T00:24:05;14.27;;;12.77;;
20348;SDS011;10332;50.208;18.988;2023-09-12T00:27:32;12.15;;;10.90;;
20348;SDS011;10332;50.208;18.988;2023-09-12T00:30:58;11.25;;;10.05;;
20348;SDS011;10332;50.208;18.988;2023-09-12T00:34:24;14.38;;;9.80;;
20348;SDS011;10332;50.208;18.988;2023-09-12T00:37:50;11.27;;;10.07;;
20348;SDS011;10332;50.208;18.988;2023-09-12T00:41:16;10.93;;;9.32;;
20348;SDS011;10332;50.208;18.988;2023-09-12T00:44:42;8.65;;;7.85;;
20348;SDS011;10332;50.208;18.988;2023-09-12T00:48:08;8.68;;;7.60;;
20348;SDS011;10332;50.208;18.988;2023-09-12T00:51:35;7.43;;;6.72;;
20348;SDS011;10332;50.208;18.988;2023-09-12T00:55:03;7.45;;;6.75;;
20348;SDS011;10332;50.208;18.988;2023-09-12T00:58:30;7.30;;;6.57;;
20348;SDS011;10332;50.208;18.988;2023-09-12T01:01:55;8.25;;;7.45;;
20348;SDS011;10332;50.208;18.988;2023-09-12T01:05:23;9.40;;;8.45;;
20348;SDS011;10332;50.208;18.988;2023-09-12T01:08:52;9.77;;;8.77;;
20348;SDS011;10332;50.208;18.988;2023-09-12T01:12:19;10.55;;;9.25;;
20348;SDS011;10332;50.208;18.988;2023-09-12T01:15:45;10.07;;;9.05;;
20348;SDS011;10332;50.208;18.988;2023-09-12T01:19:12;10.45;;;9.35;;
20348;SDS011;10332;50.208;18.988;2023-09-12T01:30:50;12.20;;;10.60;;
20348;SDS011;10332;50.208;18.988;2023-09-12T01:34:17;14.18;;;11.60;;
20348;SDS011;10332;50.208;18.988;2023-09-12T01:37:44;15.60;;;13.73;;
20348;SDS011;10332;50.208;18.988;2023-09-12T01:41:10;20.55;;;17.60;;
20348;SDS011;10332;50.208;18.988;2023-09-12T01:44:39;21.60;;;17.80;;
20348;SDS011;10332;50.208;18.988;2023-09-12T01:48:07;16.73;;;14.82;;
20348;SDS011;10332;50.208;18.988;2023-09-12T01:51:35;13.55;;;12.15;;
20348;SDS011;10332;50.208;18.988;2023-09-12T01:55:03;14.35;;;12.38;;
20348;SDS011;10332;50.208;18.988;2023-09-12T01:58:30;13.40;;;11.05;;
20348;SDS011;10332;50.208;18.988;2023-09-12T02:01:56;13.35;;;11.95;;
20348;SDS011;10332;50.208;18.988;2023-09-12T02:05:22;13.27;;;11.88;;
20348;SDS011;10332;50.208;18.988;2023-09-12T02:08:49;12.45;;;11.15;;
20348;SDS011;10332;50.208;18.988;2023-09-12T02:12:15;10.88;;;9.77;;
20348;SDS011;10332;50.208;18.988;2023-09-12T02:15:41;9.55;;;8.60;;
20348;SDS011;10332;50.208;18.988;2023-09-12T02:19:10;9.25;;;8.35;;
20348;SDS011;10332;50.208;18.988;2023-09-12T02:22:36;13.88;;;11.77;;
20348;SDS011;10332;50.208;18.988;2023-09-12T02:26:02;13.88;;;11.88;;
20348;SDS011;10332;50.208;18.988;2023-09-12T02:29:29;15.10;;;12.88;;
20348;SDS011;10332;50.208;18.988;2023-09-12T02:32:55;13.13;;;11.57;;
20348;SDS011;10332;50.208;18.988;2023-09-12T02:36:22;15.10;;;13.50;;
20348;SDS011;10332;50.208;18.988;2023-09-12T02:39:47;14.82;;;13.18;;
20348;SDS011;10332;50.208;18.988;2023-09-12T02:43:14;15.40;;;13.10;;
20348;SDS011;10332;50.208;18.988;2023-09-12T02:46:39;18.67;;;16.15;;
20348;SDS011;10332;50.208;18.988;2023-09-12T02:50:06;14.50;;;12.88;;
20348;SDS011;10332;50.208;18.988;2023-09-12T02:53:32;15.18;;;12.93;;
20348;SDS011;10332;50.208;18.988;2023-09-12T02:56:58;13.45;;;11.68;;
20348;SDS011;10332;50.208;18.988;2023-09-12T03:00:24;16.42;;;13.13;;
20348;SDS011;10332;50.208;18.988;2023-09-12T03:03:54;17.13;;;14.52;;
20348;SDS011;10332;50.208;18.988;2023-09-12T03:07:20;13.43;;;11.95;;
20348;SDS011;10332;50.208;18.988;2023-09-12T03:10:52;13.00;;;11.70;;
20348;SDS011;10332;50.208;18.988;2023-09-12T03:14:21;15.55;;;13.05;;
20348;SDS011;10332;50.208;18.988;2023-09-12T03:17:47;13.85;;;11.95;;
20348;SDS011;10332;50.208;18.988;2023-09-12T03:21:13;13.77;;;12.25;;
20348;SDS011;10332;50.208;18.988;2023-09-12T03:24:40;14.05;;;12.18;;
20348;SDS011;10332;50.208;18.988;2023-09-12T03:28:06;14.57;;;12.77;;
20348;SDS011;10332;50.208;18.988;2023-09-12T03:31:33;15.15;;;12.25;;
20348;SDS011;10332;50.208;18.988;2023-09-12T03:35:00;13.70;;;12.15;;
20348;SDS011;10332;50.208;18.988;2023-09-12T03:38:26;16.50;;;12.43;;
20348;SDS011;10332;50.208;18.988;2023-09-12T03:41:52;26.30;;;20.38;;
20348;SDS011;10332;50.208;18.988;2023-09-12T03:45:19;27.38;;;21.55;;
20348;SDS011;10332;50.208;18.988;2023-09-12T03:48:44;28.85;;;23.27;;
20348;SDS011;10332;50.208;18.988;2023-09-12T03:52:11;25.58;;;21.52;;
20348;SDS011;10332;50.208;18.988;2023-09-12T03:55:37;28.58;;;23.45;;
20348;SDS011;10332;50.208;18.988;2023-09-12T03:59:03;27.45;;;23.05;;
20348;SDS011;10332;50.208;18.988;2023-09-12T04:02:32;28.33;;;23.80;;
20348;SDS011;10332;50.208;18.988;2023-09-12T04:05:58;30.67;;;24.80;;
20348;SDS011;10332;50.208;18.988;2023-09-12T04:09:24;24.70;;;21.15;;
20348;SDS011;10332;50.208;18.988;2023-09-12T04:12:50;29.73;;;24.92;;
20348;SDS011;10332;50.208;18.988;2023-09-12T04:16:16;31.75;;;25.65;;
20348;SDS011;10332;50.208;18.988;2023-09-12T04:19:42;34.35;;;27.60;;
20348;SDS011;10332;50.208;18.988;2023-09-12T04:23:08;25.10;;;21.55;;
20348;SDS011;10332;50.208;18.988;2023-09-12T04:26:34;22.00;;;18.33;;
20348;SDS011;10332;50.208;18.988;2023-09-12T04:30:01;23.20;;;19.35;;
20348;SDS011;10332;50.208;18.988;2023-09-12T04:33:28;27.90;;;23.58;;
20348;SDS011;10332;50.208;18.988;2023-09-12T04:36:54;36.55;;;28.67;;
20348;SDS011;10332;50.208;18.988;2023-09-12T04:40:20;27.48;;;23.60;;
20348;SDS011;10332;50.208;18.988;2023-09-12T04:43:46;25.13;;;21.45;;
20348;SDS011;10332;50.208;18.988;2023-09-12T04:47:12;26.38;;;22.67;;
20348;SDS011;10332;50.208;18.988;2023-09-12T04:50:41;27.35;;;23.00;;
20348;SDS011;10332;50.208;18.988;2023-09-12T04:54:09;26.52;;;23.10;;
20348;SDS011;10332;50.208;18.988;2023-09-12T04:57:35;26.40;;;21.52;;
20348;SDS011;10332;50.208;18.988;2023-09-12T05:01:02;24.08;;;20.13;;
20348;SDS011;10332;50.208;18.988;2023-09-12T05:04:28;28.60;;;22.30;;
20348;SDS011;10332;50.208;18.988;2023-09-12T05:07:54;21.75;;;18.65;;
20348;SDS011;10332;50.208;18.988;2023-09-12T05:11:22;24.13;;;20.38;;
20348;SDS011;10332;50.208;18.988;2023-09-12T05:14:48;28.95;;;22.40;;
20348;SDS011;10332;50.208;18.988;2023-09-12T05:18:14;23.48;;;19.70;;
20348;SDS011;10332;50.208;18.988;2023-09-12T05:21:41;24.83;;;20.13;;
20348;SDS011;10332;50.208;18.988;2023-09-12T05:25:06;21.35;;;17.45;;
20348;SDS011;10332;50.208;18.988;2023-09-12T05:28:33;21.65;;;18.05;;
20348;SDS011;10332;50.208;18.988;2023-09-12T05:32:00;26.02;;;19.65;;
20348;SDS011;10332;50.208;18.988;2023-09-12T05:35:27;27.80;;;23.35;;
20348;SDS011;10332;50.208;18.988;2023-09-12T05:38:53;27.23;;;22.20;;
20348;SDS011;10332;50.208;18.988;2023-09-12T05:42:19;23.55;;;19.73;;
20348;SDS011;10332;50.208;18.988;2023-09-12T05:45:45;23.13;;;18.02;;
20348;SDS011;10332;50.208;18.988;2023-09-12T05:49:13;22.15;;;17.48;;
20348;SDS011;10332;50.208;18.988;2023-09-12T05:52:39;23.23;;;19.35;;
20348;SDS011;10332;50.208;18.988;2023-09-12T05:56:05;21.25;;;18.20;;
20348;SDS011;10332;50.208;18.988;2023-09-12T05:59:34;27.75;;;21.73;;
20348;SDS011;10332;50.208;18.988;2023-09-12T06:03:02;18.13;;;16.10;;
20348;SDS011;10332;50.208;18.988;2023-09-12T06:06:28;20.30;;;15.40;;
20348;SDS011;10332;50.208;18.988;2023-09-12T06:09:55;16.90;;;14.98;;
20348;SDS011;10332;50.208;18.988;2023-09-12T06:13:21;16.52;;;14.40;;
20348;SDS011;10332;50.208;18.988;2023-09-12T06:16:47;13.00;;;11.45;;
20348;SDS011;10332;50.208;18.988;2023-09-12T06:20:13;13.55;;;11.98;;
20348;SDS011;10332;50.208;18.988;2023-09-12T06:23:40;13.43;;;11.70;;
20348;SDS011;10332;50.208;18.988;2023-09-12T06:27:05;17.63;;;15.32;;
20348;SDS011;10332;50.208;18.988;2023-09-12T06:30:32;14.82;;;12.82;;
20348;SDS011;10332;50.208;18.988;2023-09-12T06:33:58;19.33;;;16.23;;
20348;SDS011;10332;50.208;18.988;2023-09-12T06:37:25;16.45;;;14.75;;
20348;SDS011;10332;50.208;18.988;2023-09-12T06:40:50;14.15;;;12.65;;
20348;SDS011;10332;50.208;18.988;2023-09-12T06:44:17;13.85;;;12.45;;
20348;SDS011;10332;50.208;18.988;2023-09-12T06:47:43;11.98;;;10.70;;
20348;SDS011;10332;50.208;18.988;2023-09-12T06:51:09;15.57;;;13.88;;
20348;SDS011;10332;50.208;18.988;2023-09-12T06:54:37;13.60;;;11.88;;
20348;SDS011;10332;50.208;18.988;2023-09-12T06:58:03;16.83;;;14.60;;
20348;SDS011;10332;50.208;18.988;2023-09-12T07:01:29;18.42;;;16.30;;
20348;SDS011;10332;50.208;18.988;2023-09-12T07:04:56;18.02;;;13.50;;
20348;SDS011;10332;50.208;18.988;2023-09-12T07:08:21;17.85;;;13.60;;
20348;SDS011;10332;50.208;18.988;2023-09-12T07:11:48;12.20;;;10.57;;
20348;SDS011;10332;50.208;18.988;2023-09-12T07:15:14;11.63;;;10.43;;
20348;SDS011;10332;50.208;18.988;2023-09-12T07:18:40;11.13;;;9.15;;
20348;SDS011;10332;50.208;18.988;2023-09-12T07:22:08;10.20;;;9.18;;
20348;SDS011;10332;50.208;18.988;2023-09-12T07:25:38;12.77;;;10.18;;
20348;SDS011;10332;50.208;18.988;2023-09-12T07:29:05;10.35;;;8.77;;
20348;SDS011;10332;50.208;18.988;2023-09-12T07:32:33;10.50;;;9.50;;
20348;SDS011;10332;50.208;18.988;2023-09-12T07:35:59;11.98;;;10.75;;
20348;SDS011;10332;50.208;18.988;2023-09-12T07:39:26;10.68;;;9.55;;
20348;SDS011;10332;50.208;18.988;2023-09-12T07:42:52;12.07;;;10.02;;
20348;SDS011;10332;50.208;18.988;2023-09-12T07:46:20;9.05;;;7.30;;
20348;SDS011;10332;50.208;18.988;2023-09-12T07:49:52;7.47;;;6.78;;
20348;SDS011;10332;50.208;18.988;2023-09-12T07:53:19;7.85;;;7.05;;
20348;SDS011;10332;50.208;18.988;2023-09-12T07:56:45;9.90;;;7.75;;
20348;SDS011;10332;50.208;18.988;2023-09-12T08:00:11;8.65;;;7.05;;
20348;SDS011;10332;50.208;18.988;2023-09-12T08:03:39;9.15;;;8.35;;
20348;SDS011;10332;50.208;18.988;2023-09-12T08:07:08;8.52;;;7.70;;
20348;SDS011;10332;50.208;18.988;2023-09-12T08:10:34;11.70;;;9.75;;
20348;SDS011;10332;50.208;18.988;2023-09-12T08:14:00;8.57;;;7.68;;
20348;SDS011;10332;50.208;18.988;2023-09-12T08:17:26;8.18;;;6.93;;
20348;SDS011;10332;50.208;18.988;2023-09-12T08:20:54;7.80;;;7.00;;
20348;SDS011;10332;50.208;18.988;2023-09-12T08:24:20;7.60;;;6.90;;
20348;SDS011;10332;50.208;18.988;2023-09-12T08:27:47;7.50;;;6.68;;
20348;SDS011;10332;50.208;18.988;2023-09-12T08:31:13;10.27;;;8.20;;
20348;SDS011;10332;50.208;18.988;2023-09-12T08:34:39;9.43;;;8.63;;
20348;SDS011;10332;50.208;18.988;2023-09-12T08:38:05;10.13;;;9.13;;
20348;SDS011;10332;50.208;18.988;2023-09-12T08:41:35;7.55;;;6.90;;
20348;SDS011;10332;50.208;18.988;2023-09-12T08:45:13;9.23;;;6.82;;
20348;SDS011;10332;50.208;18.988;2023-09-12T08:48:44;10.85;;;8.60;;
20348;SDS011;10332;50.208;18.988;2023-09-12T08:52:12;8.13;;;7.32;;
20348;SDS011;10332;50.208;18.988;2023-09-12T08:55:38;8.50;;;7.60;;
20348;SDS011;10332;50.208;18.988;2023-09-12T08:59:06;6.68;;;6.00;;
20348;SDS011;10332;50.208;18.988;2023-09-12T09:02:40;6.93;;;6.22;;
20348;SDS011;10332;50.208;18.988;2023-09-12T09:06:09;5.15;;;4.65;;
20348;SDS011;10332;50.208;18.988;2023-09-12T09:09:37;8.15;;;7.38;;
20348;SDS011;10332;50.208;18.988;2023-09-12T09:13:17;7.93;;;7.07;;
20348;SDS011;10332;50.208;18.988;2023-09-12T09:16:43;8.05;;;7.25;;
20348;SDS011;10332;50.208;18.988;2023-09-12T09:20:31;12.48;;;11.30;;
20348;SDS011;10332;50.208;18.988;2023-09-12T09:24:06;6.65;;;6.05;;
20348;SDS011;10332;50.208;18.988;2023-09-12T09:27:37;7.30;;;6.60;;
20348;SDS011;10332;50.208;18.988;2023-09-12T09:31:04;6.07;;;5.57;;
20348;SDS011;10332;50.208;18.988;2023-09-12T09:34:43;12.65;;;11.50;;
20348;SDS011;10332;50.208;18.988;2023-09-12T09:38:10;7.75;;;7.05;;
20348;SDS011;10332;50.208;18.988;2023-09-12T09:41:37;6.10;;;5.60;;
20348;SDS011;10332;50.208;18.988;2023-09-12T09:45:05;7.18;;;6.47;;
20348;SDS011;10332;50.208;18.988;2023-09-12T09:48:31;5.85;;;5.35;;
20348;SDS011;10332;50.208;18.988;2023-09-12T09:52:04;5.97;;;5.45;;
20348;SDS011;10332;50.208;18.988;2023-09-12T09:55:35;7.25;;;6.55;;
20348;SDS011;10332;50.208;18.988;2023-09-12T09:59:21;5.65;;;5.15;;
20348;SDS011;10332;50.208;18.988;2023-09-12T10:02:49;6.00;;;5.50;;
20348;SDS011;10332;50.208;18.988;2023-09-12T10:06:18;8.63;;;7.93;;
20348;SDS011;10332;50.208;18.988;2023-09-12T10:09:45;5.60;;;5.20;;
20348;SDS011;10332;50.208;18.988;2023-09-12T10:13:13;5.30;;;4.80;;
20348;SDS011;10332;50.208;18.988;2023-09-12T10:16:46;4.82;;;4.43;;
20348;SDS011;10332;50.208;18.988;2023-09-12T10:20:20;4.25;;;3.85;;
20348;SDS011;10332;50.208;18.988;2023-09-12T10:23:54;5.55;;;5.05;;
20348;SDS011;10332;50.208;18.988;2023-09-12T10:27:24;5.13;;;4.45;;
20348;SDS011;10332;50.208;18.988;2023-09-12T10:30:51;3.88;;;3.58;;
20348;SDS011;10332;50.208;18.988;2023-09-12T10:34:19;6.03;;;5.13;;
20348;SDS011;10332;50.208;18.988;2023-09-12T10:37:48;4.18;;;3.88;;
20348;SDS011;10332;50.208;18.988;2023-09-12T10:41:17;5.15;;;4.65;;
20348;SDS011;10332;50.208;18.988;2023-09-12T10:44:47;4.93;;;4.50;;
20348;SDS011;10332;50.208;18.988;2023-09-12T10:48:16;4.10;;;3.80;;
20348;SDS011;10332;50.208;18.988;2023-09-12T10:51:46;4.97;;;4.65;;
20348;SDS011;10332;50.208;18.988;2023-09-12T10:55:16;3.67;;;3.47;;
20348;SDS011;10332;50.208;18.988;2023-09-12T11:02:37;4.85;;;4.45;;
20348;SDS011;10332;50.208;18.988;2023-09-12T11:06:05;5.88;;;5.32;;
20348;SDS011;10332;50.208;18.988;2023-09-12T11:10:16;12.10;;;11.00;;
20348;SDS011;10332;50.208;18.988;2023-09-12T11:13:45;5.53;;;4.75;;
20348;SDS011;10332;50.208;18.988;2023-09-12T11:17:38;4.25;;;3.90;;
20348;SDS011;10332;50.208;18.988;2023-09-12T11:21:33;4.30;;;3.90;;
20348;SDS011;10332;50.208;18.988;2023-09-12T11:25:02;4.20;;;3.80;;
20348;SDS011;10332;50.208;18.988;2023-09-12T11:28:33;4.85;;;4.45;;
20348;SDS011;10332;50.208;18.988;2023-09-12T11:32:04;4.65;;;4.22;;
20348;SDS011;10332;50.208;18.988;2023-09-12T11:35:35;4.32;;;4.03;;
20348;SDS011;10332;50.208;18.988;2023-09-12T11:39:24;4.82;;;4.43;;
20348;SDS011;10332;50.208;18.988;2023-09-12T11:43:22;4.95;;;4.55;;
20348;SDS011;10332;50.208;18.988;2023-09-12T11:46:50;4.97;;;4.50;;
20348;SDS011;10332;50.208;18.988;2023-09-12T11:50:36;5.55;;;5.05;;
20348;SDS011;10332;50.208;18.988;2023-09-12T11:54:02;5.70;;;5.20;;
20348;SDS011;10332;50.208;18.988;2023-09-12T11:57:29;4.70;;;4.30;;
20348;SDS011;10332;50.208;18.988;2023-09-12T12:00:56;5.10;;;4.63;;
20348;SDS011;10332;50.208;18.988;2023-09-12T12:04:24;5.70;;;5.20;;
20348;SDS011;10332;50.208;18.988;2023-09-12T12:07:51;5.50;;;5.00;;
20348;SDS011;10332;50.208;18.988;2023-09-12T12:11:21;7.20;;;5.93;;
20348;SDS011;10332;50.208;18.988;2023-09-12T12:14:47;5.60;;;5.10;;
20348;SDS011;10332;50.208;18.988;2023-09-12T12:18:14;5.35;;;4.90;;
20348;SDS011;10332;50.208;18.988;2023-09-12T12:21:41;5.90;;;5.22;;
20348;SDS011;10332;50.208;18.988;2023-09-12T12:25:08;4.70;;;4.40;;
20348;SDS011;10332;50.208;18.988;2023-09-12T12:28:36;7.75;;;6.95;;
20348;SDS011;10332;50.208;18.988;2023-09-12T12:32:04;5.85;;;5.38;;
20348;SDS011;10332;50.208;18.988;2023-09-12T12:36:01;5.90;;;5.40;;
20348;SDS011;10332;50.208;18.988;2023-09-12T12:39:29;6.00;;;5.50;;
20348;SDS011;10332;50.208;18.988;2023-09-12T12:43:15;6.28;;;5.68;;
20348;SDS011;10332;50.208;18.988;2023-09-12T12:46:53;6.43;;;5.93;;
20348;SDS011;10332;50.208;18.988;2023-09-12T12:50:24;6.45;;;5.90;;
20348;SDS011;10332;50.208;18.988;2023-09-12T12:53:53;8.05;;;6.50;;
20348;SDS011;10332;50.208;18.988;2023-09-12T12:57:20;6.55;;;6.05;;
20348;SDS011;10332;50.208;18.988;2023-09-12T13:00:47;6.10;;;5.60;;
20348;SDS011;10332;50.208;18.988;2023-09-12T13:04:14;6.70;;;6.10;;
20348;SDS011;10332;50.208;18.988;2023-09-12T13:08:01;8.13;;;6.90;;
20348;SDS011;10332;50.208;18.988;2023-09-12T13:11:31;6.82;;;6.22;;
20348;SDS011;10332;50.208;18.988;2023-09-12T13:14:57;7.38;;;6.68;;
20348;SDS011;10332;50.208;18.988;2023-09-12T13:18:24;5.88;;;5.38;;
20348;SDS011;10332;50.208;18.988;2023-09-12T13:21:51;6.25;;;5.65;;
20348;SDS011;10332;50.208;18.988;2023-09-12T13:25:17;6.15;;;5.65;;
20348;SDS011;10332;50.208;18.988;2023-09-12T13:28:43;7.97;;;6.03;;
20348;SDS011;10332;50.208;18.988;2023-09-12T13:32:09;6.30;;;5.78;;
20348;SDS011;10332;50.208;18.988;2023-09-12T13:35:36;6.95;;;6.35;;
20348;SDS011;10332;50.208;18.988;2023-09-12T13:39:02;6.63;;;6.00;;
20348;SDS011;10332;50.208;18.988;2023-09-12T13:42:30;7.07;;;6.47;;
20348;SDS011;10332;50.208;18.988;2023-09-12T13:45:56;6.00;;;5.38;;
20348;SDS011;10332;50.208;18.988;2023-09-12T13:49:23;5.90;;;5.40;;
20348;SDS011;10332;50.208;18.988;2023-09-12T13:52:50;6.55;;;5.95;;
20348;SDS011;10332;50.208;18.988;2023-09-12T13:56:16;5.30;;;4.90;;
20348;SDS011;10332;50.208;18.988;2023-09-12T13:59:42;6.28;;;5.15;;
20348;SDS011;10332;50.208;18.988;2023-09-12T14:03:09;5.57;;;5.07;;
20348;SDS011;10332;50.208;18.988;2023-09-12T14:06:35;6.05;;;5.55;;
20348;SDS011;10332;50.208;18.988;2023-09-12T14:10:02;6.40;;;5.90;;
20348;SDS011;10332;50.208;18.988;2023-09-12T14:13:29;5.72;;;5.22;;
20348;SDS011;10332;50.208;18.988;2023-09-12T14:16:56;5.63;;;5.22;;
20348;SDS011;10332;50.208;18.988;2023-09-12T14:20:23;5.18;;;4.70;;
20348;SDS011;10332;50.208;18.988;2023-09-12T14:23:50;5.45;;;5.05;;
20348;SDS011;10332;50.208;18.988;2023-09-12T14:27:16;5.93;;;5.40;;
20348;SDS011;10332;50.208;18.988;2023-09-12T14:30:42;5.07;;;4.68;;
20348;SDS011;10332;50.208;18.988;2023-09-12T14:34:18;6.55;;;5.93;;
20348;SDS011;10332;50.208;18.988;2023-09-12T14:37:45;7.90;;;7.18;;
20348;SDS011;10332;50.208;18.988;2023-09-12T14:41:12;8.10;;;7.40;;
20348;SDS011;10332;50.208;18.988;2023-09-12T14:44:39;8.32;;;6.40;;
20348;SDS011;10332;50.208;18.988;2023-09-12T14:48:05;7.95;;;7.18;;
20348;SDS011;10332;50.208;18.988;2023-09-12T14:51:32;16.48;;;14.77;;
20348;SDS011;10332;50.208;18.988;2023-09-12T14:54:59;7.28;;;6.60;;
20348;SDS011;10332;50.208;18.988;2023-09-12T14:58:28;8.48;;;6.32;;
20348;SDS011;10332;50.208;18.988;2023-09-12T15:01:54;8.98;;;8.13;;
20348;SDS011;10332;50.208;18.988;2023-09-12T15:05:20;7.60;;;6.60;;
20348;SDS011;10332;50.208;18.988;2023-09-12T15:08:49;6.75;;;6.15;;
20348;SDS011;10332;50.208;18.988;2023-09-12T15:12:15;19.98;;;17.88;;
20348;SDS011;10332;50.208;18.988;2023-09-12T15:15:41;10.68;;;9.68;;
20348;SDS011;10332;50.208;18.988;2023-09-12T15:19:13;7.38;;;6.78;;
20348;SDS011;10332;50.208;18.988;2023-09-12T15:22:39;7.05;;;6.38;;
20348;SDS011;10332;50.208;18.988;2023-09-12T15:26:05;7.03;;;6.43;;
20348;SDS011;10332;50.208;18.988;2023-09-12T15:29:31;7.80;;;7.03;;
20348;SDS011;10332;50.208;18.988;2023-09-12T15:32:57;6.57;;;6.00;;
20348;SDS011;10332;50.208;18.988;2023-09-12T15:36:23;6.53;;;5.93;;
20348;SDS011;10332;50.208;18.988;2023-09-12T15:39:50;6.72;;;6.13;;
20348;SDS011;10332;50.208;18.988;2023-09-12T15:43:16;9.68;;;8.75;;
20348;SDS011;10332;50.208;18.988;2023-09-12T15:46:42;13.70;;;12.35;;
20348;SDS011;10332;50.208;18.988;2023-09-12T15:50:08;10.07;;;9.07;;
20348;SDS011;10332;50.208;18.988;2023-09-12T15:53:35;8.48;;;7.70;;
20348;SDS011;10332;50.208;18.988;2023-09-12T15:57:01;9.30;;;8.50;;
20348;SDS011;10332;50.208;18.988;2023-09-12T16:00:27;18.95;;;17.02;;
20348;SDS011;10332;50.208;18.988;2023-09-12T16:04:03;13.45;;;11.98;;
20348;SDS011;10332;50.208;18.988;2023-09-12T16:07:30;8.55;;;7.75;;
20348;SDS011;10332;50.208;18.988;2023-09-12T16:10:56;6.97;;;6.38;;
20348;SDS011;10332;50.208;18.988;2023-09-12T16:14:22;6.13;;;5.53;;
20348;SDS011;10332;50.208;18.988;2023-09-12T16:17:48;5.80;;;5.30;;
20348;SDS011;10332;50.208;18.988;2023-09-12T16:21:15;5.82;;;5.28;;
20348;SDS011;10332;50.208;18.988;2023-09-12T16:24:41;12.05;;;10.85;;
20348;SDS011;10332;50.208;18.988;2023-09-12T16:28:08;12.70;;;11.50;;
20348;SDS011;10332;50.208;18.988;2023-09-12T16:31:34;14.23;;;12.82;;
20348;SDS011;10332;50.208;18.988;2023-09-12T16:35:00;13.60;;;12.20;;
20348;SDS011;10332;50.208;18.988;2023-09-12T16:38:27;9.80;;;8.93;;
20348;SDS011;10332;50.208;18.988;2023-09-12T16:41:53;9.32;;;8.43;;
20348;SDS011;10332;50.208;18.988;2023-09-12T16:45:19;7.80;;;7.18;;
20348;SDS011;10332;50.208;18.988;2023-09-12T16:48:45;6.85;;;6.32;;
20348;SDS011;10332;50.208;18.988;2023-09-12T16:52:12;5.78;;;5.28;;
20348;SDS011;10332;50.208;18.988;2023-09-12T16:55:38;5.45;;;5.05;;
20348;SDS011;10332;50.208;18.988;2023-09-12T16:59:04;4.93;;;4.53;;
20348;SDS011;10332;50.208;18.988;2023-09-12T17:02:31;4.30;;;4.00;;
20348;SDS011;10332;50.208;18.988;2023-09-12T17:05:57;4.80;;;4.40;;
20348;SDS011;10332;50.208;18.988;2023-09-12T17:09:23;4.80;;;4.40;;
20348;SDS011;10332;50.208;18.988;2023-09-12T17:12:49;6.63;;;6.03;;
20348;SDS011;10332;50.208;18.988;2023-09-12T17:16:15;8.20;;;7.50;;
20348;SDS011;10332;50.208;18.988;2023-09-12T17:19:41;8.82;;;8.00;;
20348;SDS011;10332;50.208;18.988;2023-09-12T17:23:08;9.07;;;8.15;;
20348;SDS011;10332;50.208;18.988;2023-09-12T17:26:34;7.88;;;7.18;;
20348;SDS011;10332;50.208;18.988;2023-09-12T17:30:04;12.40;;;11.23;;
20348;SDS011;10332;50.208;18.988;2023-09-12T17:33:31;12.13;;;10.90;;
20348;SDS011;10332;50.208;18.988;2023-09-12T17:37:08;10.52;;;9.43;;
20348;SDS011;10332;50.208;18.988;2023-09-12T17:40:36;8.93;;;8.13;;
20348;SDS011;10332;50.208;18.988;2023-09-12T17:44:03;10.45;;;9.45;;
20348;SDS011;10332;50.208;18.988;2023-09-12T17:47:29;13.82;;;12.45;;
20348;SDS011;10332;50.208;18.988;2023-09-12T17:50:56;14.32;;;12.93;;
20348;SDS011;10332;50.208;18.988;2023-09-12T17:54:22;15.48;;;14.00;;
20348;SDS011;10332;50.208;18.988;2023-09-12T17:57:49;13.90;;;12.50;;
20348;SDS011;10332;50.208;18.988;2023-09-12T18:01:15;10.25;;;9.25;;
20348;SDS011;10332;50.208;18.988;2023-09-12T18:04:41;11.68;;;10.48;;
20348;SDS011;10332;50.208;18.988;2023-09-12T18:08:07;9.15;;;8.25;;
20348;SDS011;10332;50.208;18.988;2023-09-12T18:11:33;9.75;;;8.75;;
20348;SDS011;10332;50.208;18.988;2023-09-12T18:14:59;11.35;;;10.13;;
20348;SDS011;10332;50.208;18.988;2023-09-12T18:18:25;9.27;;;8.38;;
20348;SDS011;10332;50.208;18.988;2023-09-12T18:21:51;8.90;;;8.00;;
20348;SDS011;10332;50.208;18.988;2023-09-12T18:25:20;8.48;;;7.57;;
20348;SDS011;10332;50.208;18.988;2023-09-12T18:28:48;8.73;;;7.90;;
20348;SDS011;10332;50.208;18.988;2023-09-12T18:32:15;10.63;;;9.52;;
20348;SDS011;10332;50.208;18.988;2023-09-12T18:35:41;18.98;;;16.98;;
20348;SDS011;10332;50.208;18.988;2023-09-12T18:39:07;13.57;;;12.00;;
20348;SDS011;10332;50.208;18.988;2023-09-12T18:42:33;11.45;;;10.25;;
20348;SDS011;10332;50.208;18.988;2023-09-12T18:46:00;10.82;;;9.60;;
20348;SDS011;10332;50.208;18.988;2023-09-12T18:49:26;10.10;;;8.85;;
20348;SDS011;10332;50.208;18.988;2023-09-12T18:52:54;9.60;;;8.70;;
20348;SDS011;10332;50.208;18.988;2023-09-12T18:56:20;8.88;;;8.00;;
20348;SDS011;10332;50.208;18.988;2023-09-12T18:59:47;8.07;;;7.28;;
20348;SDS011;10332;50.208;18.988;2023-09-12T19:03:14;8.00;;;7.30;;
20348;SDS011;10332;50.208;18.988;2023-09-12T19:06:51;7.65;;;6.95;;
20348;SDS011;10332;50.208;18.988;2023-09-12T19:10:17;8.07;;;7.28;;
20348;SDS011;10332;50.208;18.988;2023-09-12T19:13:46;8.05;;;7.22;;
20348;SDS011;10332;50.208;18.988;2023-09-12T19:17:12;8.88;;;7.88;;
20348;SDS011;10332;50.208;18.988;2023-09-12T19:20:39;11.68;;;10.43;;
20348;SDS011;10332;50.208;18.988;2023-09-12T19:24:05;9.00;;;8.20;;
20348;SDS011;10332;50.208;18.988;2023-09-12T19:27:34;10.18;;;8.90;;
20348;SDS011;10332;50.208;18.988;2023-09-12T19:31:01;8.68;;;7.78;;
20348;SDS011;10332;50.208;18.988;2023-09-12T19:34:27;8.65;;;7.80;;
20348;SDS011;10332;50.208;18.988;2023-09-12T19:37:53;9.25;;;8.35;;
20348;SDS011;10332;50.208;18.988;2023-09-12T19:41:19;10.35;;;9.25;;
20348;SDS011;10332;50.208;18.988;2023-09-12T19:44:45;11.95;;;10.50;;
20348;SDS011;10332;50.208;18.988;2023-09-12T19:48:11;15.13;;;13.57;;
20348;SDS011;10332;50.208;18.988;2023-09-12T19:51:37;12.25;;;11.05;;
20348;SDS011;10332;50.208;18.988;2023-09-12T19:55:04;10.77;;;9.68;;
20348;SDS011;10332;50.208;18.988;2023-09-12T19:58:30;9.55;;;8.60;;
20348;SDS011;10332;50.208;18.988;2023-09-12T20:01:59;10.98;;;9.88;;
20348;SDS011;10332;50.208;18.988;2023-09-12T20:05:26;11.57;;;9.88;;
20348;SDS011;10332;50.208;18.988;2023-09-12T20:08:52;10.98;;;9.88;;
20348;SDS011;10332;50.208;18.988;2023-09-12T20:12:18;13.68;;;10.73;;
20348;SDS011;10332;50.208;18.988;2023-09-12T20:15:44;13.13;;;11.52;;
20348;SDS011;10332;50.208;18.988;2023-09-12T20:19:12;13.05;;;11.65;;
20348;SDS011;10332;50.208;18.988;2023-09-12T20:22:38;11.90;;;10.70;;
20348;SDS011;10332;50.208;18.988;2023-09-12T20:26:05;15.10;;;13.52;;
20348;SDS011;10332;50.208;18.988;2023-09-12T20:29:33;14.65;;;12.45;;
20348;SDS011;10332;50.208;18.988;2023-09-12T20:33:01;17.10;;;14.07;;